Погода Красносельцна неделю

Мазовецкое воеводство, Польша

15 - 21 июля
  • 15июля
    Сегодня
    +17°
    +29°
    Практически безоблачно
    ВремяПогодаТемператураВлажностьДавлениеВетер, м/сВероятность осадков
    02:00Облачно с прояснениями+17°C85 %753 мм1.3 м/с2 %
    05:00Облачно с прояснениями+16°C94 %753 мм1.6 м/с2 %
    08:00Практически безоблачно+21°C77 %754 мм1.3 м/с4 %
    11:00Небольшая облачность+26°C58 %753 мм0.5 м/с12 %
    14:00Практически безоблачно+27°C52 %753 мм0.7 м/с17 %
    17:00Ясно и безоблачно+28°C49 %753 мм0.8 м/с4 %
    20:00Ясно и безоблачно+27°C67 %753 мм0.8 м/с2 %
    23:00Небольшая облачность+21°C76 %753 мм2.0 м/с2 %
  • 16июля
    Вторник
    +18°
    +33°
    Ясно и безоблачно
    ВремяПогодаТемператураВлажностьДавлениеВетер, м/сВероятность осадков
    02:00Ясно и безоблачно+19°C77 %753 мм2.3 м/с2 %
    05:00Ясно и безоблачно+18°C74 %752 мм2.8 м/с2 %
    08:00Ясно и безоблачно+24°C65 %753 мм2.6 м/с2 %
    11:00Практически безоблачно+30°C43 %752 мм4.5 м/с2 %
    14:00Ясно и безоблачно+32°C36 %750 мм4.8 м/с2 %
    17:00Пасмурно, дожди с грозами+30°C53 %749 мм4.5 м/с33 %
    20:00Небольшая облачность, ливень+25°C91 %750 мм3.5 м/с77 %
    23:00Облачно с прояснениями+22°C96 %750 мм2.6 м/с44 %
  • 17июля
    Среда
    +15°
    +28°
    Практически безоблачно
    ВремяПогодаТемператураВлажностьДавлениеВетер, м/сВероятность осадков
    02:00Практически безоблачно+21°C95 %751 мм3.2 м/с32 %
    05:00Ясно и безоблачно+19°C95 %752 мм3.3 м/с7 %
    08:00Ясно и безоблачно+22°C82 %753 мм3.7 м/с2 %
    11:00Ясно и безоблачно+26°C50 %755 мм4.1 м/с3 %
    14:00Практически безоблачно+28°C41 %755 мм4.6 м/с2 %
    17:00Небольшая облачность+27°C40 %755 мм5.0 м/с4 %
    20:00Небольшая облачность+25°C52 %756 мм2.9 м/с3 %
    23:00Ясно и безоблачно+20°C69 %756 мм2.3 м/с2 %
  • 18июля
    Четверг
    +14°
    +27°
    Облачно с прояснениями
    ВремяПогодаТемператураВлажностьДавлениеВетер, м/сВероятность осадков
    02:00Ясно и безоблачно+17°C77 %757 мм1.8 м/с2 %
    05:00Ясно и безоблачно+15°C86 %757 мм1.7 м/с2 %
    08:00Ясно и безоблачно+21°C65 %758 мм1.8 м/с2 %
    11:00Практически безоблачно+25°C47 %758 мм3.8 м/с2 %
    14:00Облачно с прояснениями+25°C42 %758 мм3.7 м/с7 %
    17:00Небольшая облачность+26°C41 %757 мм3.6 м/с2 %
    20:00Облачно с прояснениями+23°C58 %757 мм1.7 м/с2 %
    23:00Облачно с прояснениями+18°C72 %757 мм1.8 м/с2 %
  • 19июля
    Пятница
    +12°
    +26°
    Практически безоблачно
    ВремяПогодаТемператураВлажностьДавлениеВетер, м/сВероятность осадков
    02:00Облачно с прояснениями+17°C80 %757 мм1.8 м/с2 %
    05:00Ясно и безоблачно+14°C89 %757 мм2.0 м/с2 %
    08:00Ясно и безоблачно+19°C70 %757 мм0.8 м/с2 %
    11:00Практически безоблачно+24°C52 %757 мм3.4 м/с13 %
    14:00Практически безоблачно+25°C46 %756 мм4.4 м/с15 %
    17:00Ясно и безоблачно+26°C36 %755 мм3.7 м/с10 %
    20:00Ясно и безоблачно+23°C54 %755 мм1.7 м/с2 %
    23:00Ясно и безоблачно+17°C72 %755 мм1.6 м/с2 %
Мы используем cookies
Соглашаюсь